PWSweather.com
Personal Weather Stations
Station Observations
WATERF01
WaterfordIE

WaterfordIE

Lat: 52.2412507, Lon: -7.1414691

Elevation: 65

Station Type: Davis Vantage Vue

www.waterfordweather.com

High Low Average
Temperature 49.7°F9.8°C 41.7°F5.4°C 47.4°F8.6°C
Dew Point 49.4°F9.7°C 38.8°F3.8°C 44.6°F7.0°C
Winds 13.8 mph 22.2 kmh 1.2 mph 1.9 kmh 8.0 mph W12.9 kmh W
Wind Gusts 27.6 mph44.4 kmh 4.6 mph7.4 kmh 13.0 mph20.9 kmh
Humidity 99% 77% 90%
Pressure 29.59 in1002.0 mb 29.38 in994.9 mb -
Precipitation 0.26 in6.6 mm - -
Hour Temp Dew Point Humidity Winds Wind Gusts Pressure Precip Precip Rate Daily Precip Total
12:00 AM 49.7°F9.8°C 49.4°F9.7°C 99% 9.2 mph W14.8 kmh W 15.0 mph24.1 kmh 29.59 in1002.0 mb - 0.01 in0.3 mm 0.01 in0.3 mm
12:10 AM 49.7°F9.8°C 49.4°F9.7°C 99% 6.9 mph W11.1 kmh W 16.1 mph25.9 kmh 29.58 in1001.7 mb - 0.01 in0.3 mm 0.01 in0.3 mm
12:20 AM 49.6°F9.8°C 49.3°F9.6°C 99% 8.1 mph W13.0 kmh W 11.5 mph18.5 kmh 29.58 in1001.7 mb - 0.00 in0.0 mm 0.01 in0.3 mm
12:30 AM 49.5°F9.7°C 49.2°F9.6°C 99% 5.8 mph WSW9.3 kmh WSW 9.2 mph14.8 kmh 29.58 in1001.7 mb - 0.00 in0.0 mm 0.01 in0.3 mm
12:40 AM 49.4°F9.7°C 49.1°F9.5°C 99% 5.8 mph W9.3 kmh W 8.1 mph13.0 kmh 29.57 in1001.4 mb - 0.00 in0.0 mm 0.01 in0.3 mm
12:50 AM 49.4°F9.7°C 49.1°F9.5°C 99% 4.6 mph SSW7.4 kmh SSW 11.5 mph18.5 kmh 29.57 in1001.4 mb - 0.00 in0.0 mm 0.01 in0.3 mm
01:00 AM 49.4°F9.7°C 49.1°F9.5°C 99% 4.6 mph SW7.4 kmh SW 6.9 mph11.1 kmh 29.56 in1001.0 mb - 0.00 in0.0 mm 0.01 in0.3 mm
01:10 AM 49.4°F9.7°C 49.1°F9.5°C 99% 3.5 mph WNW5.6 kmh WNW 11.5 mph18.5 kmh 29.56 in1001.0 mb - 0.01 in0.3 mm 0.02 in0.5 mm
01:20 AM 49.5°F9.7°C 49.2°F9.6°C 99% 5.8 mph WSW9.3 kmh WSW 8.1 mph13.0 kmh 29.55 in1000.7 mb - 0.00 in0.0 mm 0.02 in0.5 mm
01:30 AM 49.5°F9.7°C 49.2°F9.6°C 99% 4.6 mph SW7.4 kmh SW 8.1 mph13.0 kmh 29.55 in1000.7 mb - 0.00 in0.0 mm 0.02 in0.5 mm
01:40 AM 49.4°F9.7°C 49.1°F9.5°C 99% 3.5 mph ENE5.6 kmh ENE 5.8 mph9.3 kmh 29.54 in1000.3 mb - 0.00 in0.0 mm 0.02 in0.5 mm
01:50 AM 49.3°F9.6°C 49.0°F9.4°C 99% 3.5 mph W5.6 kmh W 6.9 mph11.1 kmh 29.54 in1000.3 mb - 0.00 in0.0 mm 0.02 in0.5 mm
02:00 AM 49.3°F9.6°C 49.0°F9.4°C 99% 3.5 mph WNW5.6 kmh WNW 6.9 mph11.1 kmh 29.54 in1000.3 mb - 0.00 in0.0 mm 0.02 in0.5 mm
02:10 AM 49.4°F9.7°C 49.1°F9.5°C 99% 4.6 mph WSW7.4 kmh WSW 5.8 mph9.3 kmh 29.53 in1000.0 mb - 0.00 in0.0 mm 0.02 in0.5 mm
02:20 AM 49.4°F9.7°C 49.1°F9.5°C 99% 4.6 mph SSE7.4 kmh SSE 6.9 mph11.1 kmh 29.53 in1000.0 mb - 0.00 in0.0 mm 0.02 in0.5 mm
02:30 AM 49.5°F9.7°C 49.2°F9.6°C 99% 3.5 mph SW5.6 kmh SW 5.8 mph9.3 kmh 29.53 in1000.0 mb - 0.00 in0.0 mm 0.02 in0.5 mm
02:40 AM 49.4°F9.7°C 49.2°F9.6°C 99% 3.5 mph SW5.6 kmh SW 5.8 mph9.3 kmh 29.52 in999.7 mb - 0.00 in0.0 mm 0.02 in0.5 mm
02:50 AM 49.5°F9.7°C 49.2°F9.6°C 99% 4.6 mph WSW7.4 kmh WSW 6.9 mph11.1 kmh 29.51 in999.3 mb - 0.00 in0.0 mm 0.02 in0.5 mm
03:00 AM 49.4°F9.7°C 49.2°F9.6°C 99% 3.5 mph W5.6 kmh W 8.1 mph13.0 kmh 29.51 in999.3 mb - 0.00 in0.0 mm 0.02 in0.5 mm
03:10 AM 49.5°F9.7°C 49.2°F9.6°C 99% 5.8 mph WSW9.3 kmh WSW 8.1 mph13.0 kmh 29.51 in999.3 mb - 0.01 in0.3 mm 0.03 in0.8 mm
03:20 AM 49.6°F9.8°C 49.3°F9.6°C 99% 4.6 mph WSW7.4 kmh WSW 11.5 mph18.5 kmh 29.50 in999.0 mb - 0.00 in0.0 mm 0.03 in0.8 mm
03:30 AM 49.6°F9.8°C 49.3°F9.6°C 99% 4.6 mph WNW7.4 kmh WNW 6.9 mph11.1 kmh 29.49 in998.6 mb - 0.00 in0.0 mm 0.03 in0.8 mm
03:40 AM 49.5°F9.7°C 49.2°F9.6°C 99% 3.5 mph W5.6 kmh W 6.9 mph11.1 kmh 29.48 in998.3 mb - 0.00 in0.0 mm 0.03 in0.8 mm
03:50 AM 49.5°F9.7°C 49.2°F9.6°C 99% 1.2 mph SW1.9 kmh SW 4.6 mph7.4 kmh 29.47 in998.0 mb - 0.00 in0.0 mm 0.03 in0.8 mm
04:00 AM 49.4°F9.7°C 49.1°F9.5°C 99% 4.6 mph S7.4 kmh S 8.1 mph13.0 kmh 29.47 in998.0 mb - 0.00 in0.0 mm 0.03 in0.8 mm
04:10 AM 49.3°F9.6°C 49.0°F9.4°C 99% 3.5 mph N5.6 kmh N 5.8 mph9.3 kmh 29.48 in998.3 mb - 0.00 in0.0 mm 0.03 in0.8 mm
04:20 AM 49.3°F9.6°C 49.0°F9.4°C 99% 3.5 mph W5.6 kmh W 5.8 mph9.3 kmh 29.47 in998.0 mb - 0.00 in0.0 mm 0.03 in0.8 mm
04:30 AM 49.6°F9.8°C 49.3°F9.6°C 99% 4.6 mph WSW7.4 kmh WSW 8.1 mph13.0 kmh 29.46 in997.6 mb - 0.00 in0.0 mm 0.03 in0.8 mm
04:40 AM 49.7°F9.8°C 49.4°F9.7°C 99% 3.5 mph W5.6 kmh W 8.1 mph13.0 kmh 29.45 in997.3 mb - 0.00 in0.0 mm 0.03 in0.8 mm
04:50 AM 49.4°F9.7°C 49.1°F9.5°C 99% 4.6 mph WSW7.4 kmh WSW 8.1 mph13.0 kmh 29.44 in997.0 mb - 0.00 in0.0 mm 0.03 in0.8 mm
05:00 AM 49.5°F9.7°C 49.2°F9.6°C 99% 4.6 mph W7.4 kmh W 8.1 mph13.0 kmh 29.43 in996.6 mb - 0.00 in0.0 mm 0.03 in0.8 mm
05:10 AM 49.4°F9.7°C 49.1°F9.5°C 99% 8.1 mph WSW13.0 kmh WSW 13.8 mph22.2 kmh 29.43 in996.6 mb - 0.00 in0.0 mm 0.03 in0.8 mm
05:20 AM 49.3°F9.6°C 49.0°F9.4°C 99% 3.5 mph W5.6 kmh W 9.2 mph14.8 kmh 29.42 in996.3 mb - 0.00 in0.0 mm 0.03 in0.8 mm
05:30 AM 49.2°F9.6°C 48.9°F9.4°C 99% 5.8 mph W9.3 kmh W 8.1 mph13.0 kmh 29.41 in995.9 mb - 0.01 in0.3 mm 0.04 in1.0 mm
05:40 AM 49.1°F9.5°C 48.8°F9.3°C 99% 5.8 mph WSW9.3 kmh WSW 8.1 mph13.0 kmh 29.42 in996.3 mb - 0.00 in0.0 mm 0.04 in1.0 mm
05:50 AM 49.3°F9.6°C 49.0°F9.4°C 99% 6.9 mph W11.1 kmh W 13.8 mph22.2 kmh 29.41 in995.9 mb - 0.00 in0.0 mm 0.04 in1.0 mm
06:00 AM 49.2°F9.6°C 48.9°F9.4°C 99% 5.8 mph W9.3 kmh W 8.1 mph13.0 kmh 29.41 in995.9 mb - 0.01 in0.3 mm 0.05 in1.3 mm
06:10 AM 48.9°F9.4°C 48.6°F9.2°C 99% 5.8 mph W9.3 kmh W 9.2 mph14.8 kmh 29.40 in995.6 mb - 0.00 in0.0 mm 0.05 in1.3 mm
06:20 AM 48.7°F9.3°C 48.4°F9.1°C 99% 5.8 mph W9.3 kmh W 9.2 mph14.8 kmh 29.40 in995.6 mb - 0.00 in0.0 mm 0.05 in1.3 mm
06:30 AM 48.7°F9.3°C 48.4°F9.1°C 99% 6.9 mph WSW11.1 kmh WSW 12.7 mph20.4 kmh 29.39 in995.3 mb - 0.00 in0.0 mm 0.05 in1.3 mm
06:40 AM 48.9°F9.4°C 48.6°F9.2°C 99% 8.1 mph W13.0 kmh W 13.8 mph22.2 kmh 29.39 in995.3 mb - 0.00 in0.0 mm 0.05 in1.3 mm
06:50 AM 49.2°F9.6°C 49.0°F9.4°C 99% 8.1 mph NW13.0 kmh NW 18.4 mph29.6 kmh 29.41 in995.9 mb - 0.03 in0.8 mm 0.08 in2.0 mm
07:00 AM 48.5°F9.2°C 48.2°F9.0°C 99% 9.2 mph WNW14.8 kmh WNW 23.0 mph37.0 kmh 29.40 in995.6 mb - 0.11 in2.8 mm 0.18 in4.6 mm
07:10 AM 48.3°F9.1°C 48.0°F8.9°C 99% 9.2 mph NW14.8 kmh NW 13.8 mph22.2 kmh 29.40 in995.6 mb - 0.02 in0.5 mm 0.20 in5.1 mm
07:20 AM 48.5°F9.2°C 48.2°F9.0°C 99% 9.2 mph WNW14.8 kmh WNW 13.8 mph22.2 kmh 29.39 in995.3 mb - 0.01 in0.3 mm 0.21 in5.3 mm
07:30 AM 48.6°F9.2°C 48.3°F9.1°C 99% 8.1 mph WNW13.0 kmh WNW 13.8 mph22.2 kmh 29.39 in995.3 mb - 0.01 in0.3 mm 0.22 in5.6 mm
07:40 AM 48.5°F9.2°C 48.2°F9.0°C 99% 9.2 mph WNW14.8 kmh WNW 13.8 mph22.2 kmh 29.40 in995.6 mb - 0.00 in0.0 mm 0.22 in5.6 mm
07:50 AM 48.3°F9.1°C 48.0°F8.9°C 99% 10.4 mph W16.7 kmh W 13.8 mph22.2 kmh 29.39 in995.3 mb - 0.01 in0.3 mm 0.23 in5.8 mm
08:00 AM 47.9°F8.8°C 47.6°F8.7°C 99% 9.2 mph WNW14.8 kmh WNW 16.1 mph25.9 kmh 29.39 in995.3 mb - 0.00 in0.0 mm 0.23 in5.8 mm
08:10 AM 47.6°F8.7°C 47.3°F8.5°C 99% 5.8 mph W9.3 kmh W 11.5 mph18.5 kmh 29.40 in995.6 mb - 0.00 in0.0 mm 0.23 in5.8 mm
08:20 AM 47.5°F8.6°C 47.2°F8.4°C 99% 9.2 mph WNW14.8 kmh WNW 15.0 mph24.1 kmh 29.39 in995.3 mb - 0.00 in0.0 mm 0.23 in5.8 mm
08:30 AM 47.8°F8.8°C 47.5°F8.6°C 99% 6.9 mph WNW11.1 kmh WNW 9.2 mph14.8 kmh 29.39 in995.3 mb - 0.00 in0.0 mm 0.23 in5.8 mm
08:40 AM 48.2°F9.0°C 47.9°F8.8°C 99% 9.2 mph WNW14.8 kmh WNW 16.1 mph25.9 kmh 29.39 in995.3 mb - 0.00 in0.0 mm 0.23 in5.8 mm
08:50 AM 48.4°F9.1°C 47.9°F8.8°C 98% 8.1 mph WNW13.0 kmh WNW 12.7 mph20.4 kmh 29.40 in995.6 mb - 0.00 in0.0 mm 0.23 in5.8 mm
09:00 AM 48.2°F9.0°C 47.9°F8.8°C 99% 5.8 mph WNW9.3 kmh WNW 11.5 mph18.5 kmh 29.40 in995.6 mb - 0.00 in0.0 mm 0.23 in5.8 mm
09:10 AM 48.0°F8.9°C 47.7°F8.7°C 99% 4.6 mph W7.4 kmh W 6.9 mph11.1 kmh 29.40 in995.6 mb - 0.00 in0.0 mm 0.23 in5.8 mm
09:20 AM 48.1°F8.9°C 47.8°F8.8°C 99% 6.9 mph WNW11.1 kmh WNW 12.7 mph20.4 kmh 29.40 in995.6 mb - 0.00 in0.0 mm 0.23 in5.8 mm
09:30 AM 48.1°F8.9°C 47.8°F8.8°C 99% 5.8 mph WNW9.3 kmh WNW 18.4 mph29.6 kmh 29.41 in995.9 mb - 0.00 in0.0 mm 0.23 in5.8 mm
09:40 AM 48.3°F9.1°C 47.5°F8.6°C 97% 9.2 mph WNW14.8 kmh WNW 12.7 mph20.4 kmh 29.41 in995.9 mb - 0.00 in0.0 mm 0.23 in5.8 mm
09:50 AM 48.3°F9.1°C 47.5°F8.6°C 97% 8.1 mph NW13.0 kmh NW 15.0 mph24.1 kmh 29.41 in995.9 mb - 0.00 in0.0 mm 0.23 in5.8 mm
10:00 AM 48.3°F9.1°C 47.2°F8.4°C 96% 6.9 mph WNW11.1 kmh WNW 9.2 mph14.8 kmh 29.41 in995.9 mb - 0.00 in0.0 mm 0.23 in5.8 mm
10:10 AM 48.5°F9.2°C 47.1°F8.4°C 95% 12.7 mph WNW20.4 kmh WNW 23.0 mph37.0 kmh 29.42 in996.3 mb - 0.00 in0.0 mm 0.23 in5.8 mm
10:20 AM 48.1°F8.9°C 46.7°F8.2°C 95% 10.4 mph W16.7 kmh W 20.7 mph33.3 kmh 29.42 in996.3 mb - 0.00 in0.0 mm 0.23 in5.8 mm
10:30 AM 48.2°F9.0°C 46.3°F7.9°C 93% 9.2 mph WNW14.8 kmh WNW 18.4 mph29.6 kmh 29.42 in996.3 mb - 0.00 in0.0 mm 0.23 in5.8 mm
10:40 AM 48.2°F9.0°C 46.3°F7.9°C 93% 9.2 mph WNW14.8 kmh WNW 19.6 mph31.5 kmh 29.43 in996.6 mb - 0.00 in0.0 mm 0.23 in5.8 mm
10:50 AM 48.3°F9.1°C 45.8°F7.7°C 91% 9.2 mph W14.8 kmh W 13.8 mph22.2 kmh 29.43 in996.6 mb - 0.00 in0.0 mm 0.23 in5.8 mm
11:00 AM 48.3°F9.1°C 45.5°F7.5°C 90% 9.2 mph WNW14.8 kmh WNW 18.4 mph29.6 kmh 29.43 in996.6 mb - 0.00 in0.0 mm 0.23 in5.8 mm
11:10 AM 48.3°F9.1°C 45.5°F7.5°C 90% 8.1 mph W13.0 kmh W 15.0 mph24.1 kmh 29.44 in997.0 mb - 0.00 in0.0 mm 0.23 in5.8 mm
11:20 AM 48.2°F9.0°C 45.2°F7.3°C 89% 9.2 mph WNW14.8 kmh WNW 18.4 mph29.6 kmh 29.44 in997.0 mb - 0.00 in0.0 mm 0.23 in5.8 mm
11:30 AM 48.1°F8.9°C 44.7°F7.1°C 88% 5.8 mph WNW9.3 kmh WNW 11.5 mph18.5 kmh 29.44 in997.0 mb - 0.00 in0.0 mm 0.23 in5.8 mm
11:40 AM 47.9°F8.8°C 43.9°F6.6°C 86% 8.1 mph WNW13.0 kmh WNW 13.8 mph22.2 kmh 29.43 in996.6 mb - 0.00 in0.0 mm 0.23 in5.8 mm
11:50 AM 48.0°F8.9°C 43.7°F6.5°C 85% 10.4 mph WNW16.7 kmh WNW 21.9 mph35.2 kmh 29.43 in996.6 mb - 0.00 in0.0 mm 0.23 in5.8 mm
12:00 PM 48.0°F8.9°C 43.4°F6.3°C 84% 11.5 mph WNW18.5 kmh WNW 20.7 mph33.3 kmh 29.43 in996.6 mb - 0.00 in0.0 mm 0.23 in5.8 mm
12:10 PM 48.1°F8.9°C 43.2°F6.2°C 83% 9.2 mph W14.8 kmh W 19.6 mph31.5 kmh 29.44 in997.0 mb - 0.00 in0.0 mm 0.23 in5.8 mm
12:20 PM 48.1°F8.9°C 43.5°F6.4°C 84% 9.2 mph WNW14.8 kmh WNW 19.6 mph31.5 kmh 29.43 in996.6 mb - 0.00 in0.0 mm 0.23 in5.8 mm
12:30 PM 48.0°F8.9°C 42.8°F6.0°C 82% 11.5 mph WNW18.5 kmh WNW 18.4 mph29.6 kmh 29.43 in996.6 mb - 0.00 in0.0 mm 0.23 in5.8 mm
12:40 PM 48.0°F8.9°C 42.5°F5.8°C 81% 11.5 mph WNW18.5 kmh WNW 16.1 mph25.9 kmh 29.43 in996.6 mb - 0.00 in0.0 mm 0.23 in5.8 mm
12:50 PM 48.2°F9.0°C 42.3°F5.7°C 80% 10.4 mph WNW16.7 kmh WNW 18.4 mph29.6 kmh 29.43 in996.6 mb - 0.00 in0.0 mm 0.23 in5.8 mm
01:00 PM 48.1°F8.9°C 42.2°F5.7°C 80% 12.7 mph WNW20.4 kmh WNW 27.6 mph44.4 kmh 29.43 in996.6 mb - 0.00 in0.0 mm 0.23 in5.8 mm
01:10 PM 47.6°F8.7°C 42.4°F5.8°C 82% 10.4 mph WNW16.7 kmh WNW 16.1 mph25.9 kmh 29.43 in996.6 mb - 0.00 in0.0 mm 0.23 in5.8 mm
01:20 PM 47.7°F8.7°C 42.5°F5.8°C 82% 9.2 mph WNW14.8 kmh WNW 18.4 mph29.6 kmh 29.43 in996.6 mb - 0.00 in0.0 mm 0.23 in5.8 mm
01:30 PM 47.9°F8.8°C 42.0°F5.6°C 80% 9.2 mph WNW14.8 kmh WNW 18.4 mph29.6 kmh 29.42 in996.3 mb - 0.00 in0.0 mm 0.23 in5.8 mm
01:40 PM 47.6°F8.7°C 41.7°F5.4°C 80% 6.9 mph NW11.1 kmh NW 12.7 mph20.4 kmh 29.43 in996.6 mb - 0.00 in0.0 mm 0.23 in5.8 mm
01:50 PM 47.2°F8.4°C 42.0°F5.6°C 82% 10.4 mph WNW16.7 kmh WNW 13.8 mph22.2 kmh 29.42 in996.3 mb - 0.00 in0.0 mm 0.23 in5.8 mm
02:00 PM 47.2°F8.4°C 42.3°F5.7°C 83% 9.2 mph WNW14.8 kmh WNW 18.4 mph29.6 kmh 29.42 in996.3 mb - 0.00 in0.0 mm 0.23 in5.8 mm
02:10 PM 47.5°F8.6°C 42.3°F5.7°C 82% 6.9 mph W11.1 kmh W 11.5 mph18.5 kmh 29.42 in996.3 mb - 0.00 in0.0 mm 0.23 in5.8 mm
02:20 PM 47.8°F8.8°C 41.6°F5.3°C 79% 9.2 mph W14.8 kmh W 13.8 mph22.2 kmh 29.42 in996.3 mb - 0.00 in0.0 mm 0.23 in5.8 mm
02:30 PM 48.2°F9.0°C 41.4°F5.2°C 77% 9.2 mph WNW14.8 kmh WNW 16.1 mph25.9 kmh 29.41 in995.9 mb - 0.00 in0.0 mm 0.23 in5.8 mm
02:40 PM 48.8°F9.3°C 41.9°F5.5°C 77% 8.1 mph NW13.0 kmh NW 19.6 mph31.5 kmh 29.41 in995.9 mb - 0.00 in0.0 mm 0.23 in5.8 mm
02:50 PM 48.4°F9.1°C 42.5°F5.8°C 80% 11.5 mph NW18.5 kmh NW 15.0 mph24.1 kmh 29.42 in996.3 mb - 0.00 in0.0 mm 0.23 in5.8 mm
03:00 PM 47.6°F8.7°C 42.3°F5.7°C 82% 9.2 mph WNW14.8 kmh WNW 11.5 mph18.5 kmh 29.42 in996.3 mb - 0.00 in0.0 mm 0.23 in5.8 mm
03:10 PM 46.6°F8.1°C 42.0°F5.6°C 84% 9.2 mph WNW14.8 kmh WNW 16.1 mph25.9 kmh 29.42 in996.3 mb - 0.00 in0.0 mm 0.23 in5.8 mm
03:20 PM 46.3°F7.9°C 41.7°F5.4°C 84% 9.2 mph WNW14.8 kmh WNW 15.0 mph24.1 kmh 29.43 in996.6 mb - 0.00 in0.0 mm 0.23 in5.8 mm
03:30 PM 46.4°F8.0°C 41.5°F5.3°C 83% 9.2 mph NW14.8 kmh NW 12.7 mph20.4 kmh 29.42 in996.3 mb - 0.00 in0.0 mm 0.23 in5.8 mm
03:40 PM 46.4°F8.0°C 41.5°F5.3°C 83% 9.2 mph WNW14.8 kmh WNW 18.4 mph29.6 kmh 29.43 in996.6 mb - 0.00 in0.0 mm 0.23 in5.8 mm
03:50 PM 46.6°F8.1°C 40.8°F4.9°C 80% 10.4 mph WNW16.7 kmh WNW 18.4 mph29.6 kmh 29.43 in996.6 mb - 0.00 in0.0 mm 0.23 in5.8 mm
04:00 PM 45.9°F7.7°C 40.4°F4.7°C 81% 13.8 mph W22.2 kmh W 25.3 mph40.7 kmh 29.42 in996.3 mb - 0.00 in0.0 mm 0.23 in5.8 mm
04:10 PM 45.6°F7.6°C 40.4°F4.7°C 82% 6.9 mph WNW11.1 kmh WNW 13.8 mph22.2 kmh 29.43 in996.6 mb - 0.00 in0.0 mm 0.23 in5.8 mm
04:20 PM 45.8°F7.7°C 39.7°F4.3°C 79% 9.2 mph WNW14.8 kmh WNW 18.4 mph29.6 kmh 29.42 in996.3 mb - 0.00 in0.0 mm 0.23 in5.8 mm
04:30 PM 45.9°F7.7°C 39.8°F4.3°C 79% 5.8 mph W9.3 kmh W 9.2 mph14.8 kmh 29.42 in996.3 mb - 0.00 in0.0 mm 0.23 in5.8 mm
04:40 PM 45.9°F7.7°C 40.0°F4.4°C 80% 8.1 mph WNW13.0 kmh WNW 11.5 mph18.5 kmh 29.41 in995.9 mb - 0.00 in0.0 mm 0.23 in5.8 mm
04:50 PM 45.6°F7.6°C 40.4°F4.7°C 82% 5.8 mph WNW9.3 kmh WNW 15.0 mph24.1 kmh 29.41 in995.9 mb - 0.00 in0.0 mm 0.23 in5.8 mm
05:00 PM 45.8°F7.7°C 40.0°F4.4°C 80% 6.9 mph W11.1 kmh W 10.4 mph16.7 kmh 29.41 in995.9 mb - 0.00 in0.0 mm 0.23 in5.8 mm
05:10 PM 45.9°F7.7°C 39.4°F4.1°C 78% 9.2 mph WNW14.8 kmh WNW 16.1 mph25.9 kmh 29.41 in995.9 mb - 0.00 in0.0 mm 0.23 in5.8 mm
05:20 PM 45.9°F7.7°C 39.7°F4.3°C 79% 8.1 mph WNW13.0 kmh WNW 15.0 mph24.1 kmh 29.42 in996.3 mb - 0.00 in0.0 mm 0.23 in5.8 mm
05:30 PM 46.0°F7.8°C 40.2°F4.6°C 80% 6.9 mph WNW11.1 kmh WNW 12.7 mph20.4 kmh 29.41 in995.9 mb - 0.00 in0.0 mm 0.23 in5.8 mm
05:40 PM 45.7°F7.6°C 40.5°F4.7°C 82% 4.6 mph WNW7.4 kmh WNW 11.5 mph18.5 kmh 29.41 in995.9 mb - 0.00 in0.0 mm 0.23 in5.8 mm
05:50 PM 45.2°F7.3°C 40.3°F4.6°C 83% 6.9 mph WNW11.1 kmh WNW 11.5 mph18.5 kmh 29.41 in995.9 mb - 0.00 in0.0 mm 0.23 in5.8 mm
06:00 PM 45.5°F7.5°C 40.4°F4.7°C 82% 6.9 mph WNW11.1 kmh WNW 11.5 mph18.5 kmh 29.41 in995.9 mb - 0.00 in0.0 mm 0.23 in5.8 mm
06:10 PM 45.5°F7.5°C 40.3°F4.6°C 82% 5.8 mph WNW9.3 kmh WNW 8.1 mph13.0 kmh 29.41 in995.9 mb - 0.00 in0.0 mm 0.23 in5.8 mm
06:20 PM 45.4°F7.4°C 39.9°F4.4°C 81% 8.1 mph W13.0 kmh W 11.5 mph18.5 kmh 29.41 in995.9 mb - 0.00 in0.0 mm 0.23 in5.8 mm
06:30 PM 45.6°F7.6°C 40.4°F4.7°C 82% 6.9 mph WNW11.1 kmh WNW 12.7 mph20.4 kmh 29.41 in995.9 mb - 0.00 in0.0 mm 0.23 in5.8 mm
06:40 PM 45.3°F7.4°C 40.4°F4.7°C 83% 6.9 mph WNW11.1 kmh WNW 11.5 mph18.5 kmh 29.40 in995.6 mb - 0.00 in0.0 mm 0.23 in5.8 mm
06:50 PM 45.4°F7.4°C 40.0°F4.4°C 81% 10.4 mph WNW16.7 kmh WNW 20.7 mph33.3 kmh 29.40 in995.6 mb - 0.00 in0.0 mm 0.23 in5.8 mm
07:00 PM 46.0°F7.8°C 39.9°F4.4°C 79% 6.9 mph W11.1 kmh W 8.1 mph13.0 kmh 29.40 in995.6 mb - 0.00 in0.0 mm 0.23 in5.8 mm
07:10 PM 46.2°F7.9°C 41.0°F5.0°C 82% 10.4 mph W16.7 kmh W 16.1 mph25.9 kmh 29.40 in995.6 mb - 0.00 in0.0 mm 0.23 in5.8 mm
07:20 PM 45.8°F7.7°C 41.9°F5.5°C 86% 5.8 mph W9.3 kmh W 11.5 mph18.5 kmh 29.40 in995.6 mb - 0.00 in0.0 mm 0.23 in5.8 mm
07:30 PM 45.6°F7.6°C 41.7°F5.4°C 86% 3.5 mph WNW5.6 kmh WNW 9.2 mph14.8 kmh 29.41 in995.9 mb - 0.00 in0.0 mm 0.23 in5.8 mm
07:40 PM 45.6°F7.6°C 41.7°F5.4°C 86% 5.8 mph W9.3 kmh W 11.5 mph18.5 kmh 29.40 in995.6 mb - 0.00 in0.0 mm 0.23 in5.8 mm
07:50 PM 45.5°F7.5°C 41.6°F5.3°C 86% 9.2 mph WNW14.8 kmh WNW 15.0 mph24.1 kmh 29.40 in995.6 mb - 0.00 in0.0 mm 0.23 in5.8 mm
08:00 PM 45.6°F7.6°C 41.3°F5.2°C 85% 8.1 mph WNW13.0 kmh WNW 13.8 mph22.2 kmh 29.39 in995.3 mb - 0.00 in0.0 mm 0.23 in5.8 mm
08:10 PM 45.3°F7.4°C 40.7°F4.8°C 84% 6.9 mph W11.1 kmh W 12.7 mph20.4 kmh 29.39 in995.3 mb - 0.00 in0.0 mm 0.23 in5.8 mm
08:20 PM 45.5°F7.5°C 40.6°F4.8°C 83% 9.2 mph W14.8 kmh W 18.4 mph29.6 kmh 29.39 in995.3 mb - 0.00 in0.0 mm 0.23 in5.8 mm
08:30 PM 45.6°F7.6°C 40.7°F4.8°C 83% 5.8 mph W9.3 kmh W 11.5 mph18.5 kmh 29.39 in995.3 mb - 0.00 in0.0 mm 0.23 in5.8 mm
08:40 PM 45.5°F7.5°C 40.3°F4.6°C 82% 8.1 mph W13.0 kmh W 11.5 mph18.5 kmh 29.39 in995.3 mb - 0.00 in0.0 mm 0.23 in5.8 mm
08:50 PM 45.7°F7.6°C 39.9°F4.4°C 80% 11.5 mph WNW18.5 kmh WNW 12.7 mph20.4 kmh 29.39 in995.3 mb - 0.00 in0.0 mm 0.23 in5.8 mm
09:00 PM 45.6°F7.6°C 40.7°F4.8°C 83% 8.1 mph WNW13.0 kmh WNW 20.7 mph33.3 kmh 29.38 in994.9 mb - 0.00 in0.0 mm 0.23 in5.8 mm
09:10 PM 44.8°F7.1°C 41.4°F5.2°C 88% 8.1 mph WNW13.0 kmh WNW 13.8 mph22.2 kmh 29.39 in995.3 mb - 0.00 in0.0 mm 0.23 in5.8 mm
09:20 PM 44.4°F6.9°C 40.8°F4.9°C 87% 6.9 mph W11.1 kmh W 13.8 mph22.2 kmh 29.39 in995.3 mb - 0.00 in0.0 mm 0.23 in5.8 mm
09:30 PM 44.1°F6.7°C 40.8°F4.9°C 88% 6.9 mph W11.1 kmh W 12.7 mph20.4 kmh 29.39 in995.3 mb - 0.00 in0.0 mm 0.23 in5.8 mm
09:40 PM 44.1°F6.7°C 40.8°F4.9°C 88% 8.1 mph WNW13.0 kmh WNW 15.0 mph24.1 kmh 29.38 in994.9 mb - 0.00 in0.0 mm 0.23 in5.8 mm
09:50 PM 44.9°F7.2°C 41.0°F5.0°C 86% 9.2 mph WNW14.8 kmh WNW 21.9 mph35.2 kmh 29.39 in995.3 mb - 0.01 in0.3 mm 0.24 in6.1 mm
10:00 PM 44.7°F7.1°C 40.8°F4.9°C 86% 5.8 mph WNW9.3 kmh WNW 12.7 mph20.4 kmh 29.38 in994.9 mb - 0.01 in0.3 mm 0.24 in6.1 mm
10:10 PM 44.8°F7.1°C 39.3°F4.1°C 81% 11.5 mph W18.5 kmh W 21.9 mph35.2 kmh 29.38 in994.9 mb - 0.00 in0.0 mm 0.24 in6.1 mm
10:20 PM 45.6°F7.6°C 39.5°F4.2°C 79% 12.7 mph WNW20.4 kmh WNW 19.6 mph31.5 kmh 29.38 in994.9 mb - 0.00 in0.0 mm 0.24 in6.1 mm
10:30 PM 45.4°F7.4°C 39.6°F4.2°C 80% 11.5 mph WNW18.5 kmh WNW 23.0 mph37.0 kmh 29.38 in994.9 mb - 0.00 in0.0 mm 0.24 in6.1 mm
10:40 PM 45.1°F7.3°C 39.3°F4.1°C 80% 8.1 mph W13.0 kmh W 16.1 mph25.9 kmh 29.38 in994.9 mb - 0.00 in0.0 mm 0.24 in6.1 mm
10:50 PM 44.9°F7.2°C 38.8°F3.8°C 79% 10.4 mph W16.7 kmh W 13.8 mph22.2 kmh 29.38 in994.9 mb - 0.00 in0.0 mm 0.24 in6.1 mm
11:00 PM 45.2°F7.3°C 39.1°F3.9°C 79% 12.7 mph W20.4 kmh W 21.9 mph35.2 kmh 29.39 in995.3 mb - 0.00 in0.0 mm 0.24 in6.1 mm
11:10 PM 43.6°F6.4°C 41.1°F5.1°C 91% 12.7 mph W20.4 kmh W 19.6 mph31.5 kmh 29.40 in995.6 mb - 0.02 in0.5 mm 0.26 in6.6 mm
11:20 PM 41.7°F5.4°C 40.4°F4.7°C 95% 5.8 mph WNW9.3 kmh WNW 9.2 mph14.8 kmh 29.40 in995.6 mb - 0.00 in0.0 mm 0.26 in6.6 mm
11:30 PM 41.9°F5.5°C 40.3°F4.6°C 94% 6.9 mph WNW11.1 kmh WNW 16.1 mph25.9 kmh 29.40 in995.6 mb - 0.00 in0.0 mm 0.26 in6.6 mm
11:40 PM 42.5°F5.8°C 39.8°F4.3°C 90% 8.1 mph WNW13.0 kmh WNW 13.8 mph22.2 kmh 29.40 in995.6 mb - 0.00 in0.0 mm 0.26 in6.6 mm
11:50 PM 42.6°F5.9°C 39.6°F4.2°C 89% 5.8 mph WNW9.3 kmh WNW 11.5 mph18.5 kmh 29.40 in995.6 mb - 0.00 in0.0 mm 0.26 in6.6 mm